Time;durP1;ratioP1;P1;durP2;ratioP2;P2;SDS_P1;SDS_P2;PMS_P1;PMS_P2;Temp;Humidity;BMP_temperature;BMP_pressure;BME280_temperature;BME280_humidity;BME280_pressure;Samples;Min_cycle;Max_cycle;Signal;HPM_P1;HPM_P2
2023/08/05 00:00:14;;;;;;;5.78;5.22;;;;;;;;;;5100769;28;20052;-82
2023/08/05 00:02:41;;;;;;;6.25;5.68;;;;;;;;;;5118888;28;20065;-82
2023/08/05 00:05:09;;;;;;;6.88;5.43;;;;;;;;;;5100688;28;20047;-81
2023/08/05 00:07:36;;;;;;;11.35;6.53;;;;;;;;;;5100947;28;20047;-82
2023/08/05 00:10:03;;;;;;;12.73;5.60;;;;;;;;;;5100005;28;20047;-82
2023/08/05 00:12:31;;;;;;;8.18;6.45;;;;;;;;;;5100290;28;20128;-81
2023/08/05 00:14:58;;;;;;;10.38;5.65;;;;;;;;;;5100179;28;20551;-82
2023/08/05 00:17:25;;;;;;;7.38;5.70;;;;;;;;;;5118003;28;20047;-81
2023/08/05 00:19:52;;;;;;;7.47;5.70;;;;;;;;;;5119312;28;20107;-82
2023/08/05 00:22:20;;;;;;;6.45;5.85;;;;;;;;;;5119520;28;20096;-80
2023/08/05 00:24:47;;;;;;;7.32;6.63;;;;;;;;;;5100199;28;20052;-81
2023/08/05 00:27:14;;;;;;;9.13;6.55;;;;;;;;;;5118309;28;20047;-81
2023/08/05 00:29:41;;;;;;;7.03;6.32;;;;;;;;;;5118133;28;20039;-81
2023/08/05 00:32:09;;;;;;;11.52;7.28;;;;;;;;;;5099433;28;20469;-82
2023/08/05 00:34:36;;;;;;;6.75;6.22;;;;;;;;;;5099421;28;20096;-81
2023/08/05 00:37:03;;;;;;;8.80;7.35;;;;;;;;;;5099065;28;20064;-81
2023/08/05 00:39:31;;;;;;;14.27;7.43;;;;;;;;;;5117156;28;20043;-82
2023/08/05 00:41:58;;;;;;;7.00;6.30;;;;;;;;;;5117085;28;20063;-81
2023/08/05 00:44:25;;;;;;;11.43;6.53;;;;;;;;;;5098486;28;20040;-81
2023/08/05 00:46:53;;;;;;;8.95;6.30;;;;;;;;;;5115375;28;20518;-82
2023/08/05 00:49:20;;;;;;;14.73;6.43;;;;;;;;;;5116824;28;20077;-81
2023/08/05 00:51:48;;;;;;;9.38;6.45;;;;;;;;;;5098010;28;20044;-80
2023/08/05 00:54:16;;;;;;;11.23;6.18;;;;;;;;;;5116611;28;20044;-81
2023/08/05 00:56:43;;;;;;;10.88;5.93;;;;;;;;;;5116011;28;20047;-81
2023/08/05 00:59:11;;;;;;;9.90;6.35;;;;;;;;;;5098271;28;20100;-82
2023/08/05 01:01:38;;;;;;;8.77;6.22;;;;;;;;;;5097948;28;20055;-81
2023/08/05 01:04:06;;;;;;;9.10;5.95;;;;;;;;;;5116150;28;20055;-81
2023/08/05 01:06:33;;;;;;;10.55;6.05;;;;;;;;;;5116273;28;20047;-81
2023/08/05 01:09:01;;;;;;;8.43;5.93;;;;;;;;;;5097518;28;20108;-81
2023/08/05 01:11:28;;;;;;;6.85;6.15;;;;;;;;;;5115343;28;20491;-81
2023/08/05 01:13:55;;;;;;;11.52;6.78;;;;;;;;;;5115824;28;20050;-81
2023/08/05 01:16:22;;;;;;;9.63;6.70;;;;;;;;;;5097760;28;20047;-81
2023/08/05 01:18:50;;;;;;;12.02;7.30;;;;;;;;;;5097572;28;20476;-81
2023/08/05 01:21:44;;;;;;;7.60;6.13;;;;;;;;;;5097642;28;20085;-81
2023/08/05 01:24:21;;;;;;;8.07;6.10;;;;;;;;;;5111265;28;20051;-81
2023/08/05 01:26:49;;;;;;;12.27;6.53;;;;;;;;;;5119320;28;20052;-81
2023/08/05 01:29:17;;;;;;;6.30;5.75;;;;;;;;;;5101581;28;20048;-81
2023/08/05 01:31:45;;;;;;;10.13;6.95;;;;;;;;;;5118191;28;20077;-81
2023/08/05 01:34:12;;;;;;;12.57;7.20;;;;;;;;;;5100246;28;20503;-81
2023/08/05 01:36:40;;;;;;;9.38;6.07;;;;;;;;;;5117136;28;20058;-81
2023/08/05 01:39:07;;;;;;;12.70;6.18;;;;;;;;;;5099402;28;20047;-81
2023/08/05 01:41:34;;;;;;;9.35;6.85;;;;;;;;;;5117051;28;20058;-81
2023/08/05 01:44:01;;;;;;;10.55;6.00;;;;;;;;;;5098474;28;20511;-81
2023/08/05 01:46:29;;;;;;;12.48;7.25;;;;;;;;;;5098348;28;20051;-81
2023/08/05 01:48:56;;;;;;;10.60;6.55;;;;;;;;;;5097796;28;20419;-82
2023/08/05 01:51:23;;;;;;;9.50;6.93;;;;;;;;;;5115825;28;20089;-81
2023/08/05 01:53:50;;;;;;;8.30;7.07;;;;;;;;;;5098326;28;20495;-82
2023/08/05 01:56:17;;;;;;;10.07;5.80;;;;;;;;;;5098540;28;20191;-82
2023/08/05 01:58:45;;;;;;;8.65;6.32;;;;;;;;;;5098443;28;20069;-81
2023/08/05 02:01:12;;;;;;;11.45;6.20;;;;;;;;;;5098421;28;20075;-82
2023/08/05 02:03:39;;;;;;;6.65;5.28;;;;;;;;;;5097795;28;20047;-82
2023/08/05 02:06:07;;;;;;;12.07;6.22;;;;;;;;;;5097282;28;20496;-82
2023/08/05 02:08:34;;;;;;;6.10;5.53;;;;;;;;;;5115492;28;20453;-81
2023/08/05 02:11:03;;;;;;;7.13;5.93;;;;;;;;;;5114488;28;20121;-82
2023/08/05 02:13:30;;;;;;;6.60;6.03;;;;;;;;;;5096940;28;20424;-82
2023/08/05 02:15:58;;;;;;;6.57;5.25;;;;;;;;;;5114691;28;20048;-81
2023/08/05 02:18:25;;;;;;;6.05;5.45;;;;;;;;;;5096787;28;20040;-81
2023/08/05 02:20:52;;;;;;;6.45;5.43;;;;;;;;;;5096400;28;20172;-82
2023/08/05 02:23:19;;;;;;;5.88;5.10;;;;;;;;;;5096030;28;20435;-81
2023/08/05 02:25:47;;;;;;;6.88;5.10;;;;;;;;;;5095797;28;20119;-81
2023/08/05 02:28:14;;;;;;;7.43;4.85;;;;;;;;;;5095919;28;20047;-81
2023/08/05 02:30:41;;;;;;;8.00;5.55;;;;;;;;;;5095671;28;20160;-81
2023/08/05 02:33:08;;;;;;;12.02;4.93;;;;;;;;;;5095640;28;20043;-81
2023/08/05 02:35:36;;;;;;;6.78;5.10;;;;;;;;;;5095741;28;20043;-81
2023/08/05 02:38:03;;;;;;;8.90;4.93;;;;;;;;;;5113349;28;20101;-80
2023/08/05 02:40:34;;;;;;;11.13;4.90;;;;;;;;;;5113366;28;20489;-81
2023/08/05 02:43:01;;;;;;;7.90;5.07;;;;;;;;;;5113328;28;20055;-81
2023/08/05 02:45:28;;;;;;;6.10;5.60;;;;;;;;;;5113161;28;20572;-81
2023/08/05 02:47:55;;;;;;;6.25;5.65;;;;;;;;;;5095265;28;20051;-82
2023/08/05 02:50:22;;;;;;;7.95;6.10;;;;;;;;;;5112974;28;20506;-82
2023/08/05 02:52:50;;;;;;;5.53;5.13;;;;;;;;;;5113012;28;20051;-81
2023/08/05 02:55:17;;;;;;;7.00;5.75;;;;;;;;;;5094717;28;20047;-82
2023/08/05 02:57:44;;;;;;;6.97;5.18;;;;;;;;;;5112797;28;20043;-81
2023/08/05 03:00:12;;;;;;;6.25;5.38;;;;;;;;;;5094971;28;20551;-81
2023/08/05 03:02:39;;;;;;;5.45;5.05;;;;;;;;;;5095091;28;20093;-80
2023/08/05 03:05:06;;;;;;;5.43;5.00;;;;;;;;;;5094856;28;20499;-81
2023/08/05 03:07:34;;;;;;;6.40;5.15;;;;;;;;;;5094651;28;20414;-81
2023/08/05 03:10:01;;;;;;;10.13;5.50;;;;;;;;;;5097644;28;20461;-80
2023/08/05 03:12:28;;;;;;;7.68;4.97;;;;;;;;;;5117218;28;20043;-82
2023/08/05 03:14:55;;;;;;;5.95;5.35;;;;;;;;;;5116854;28;20055;-82
2023/08/05 03:17:23;;;;;;;6.75;5.90;;;;;;;;;;5116848;28;20048;-80
2023/08/05 03:19:53;;;;;;;10.55;5.30;;;;;;;;;;5116947;28;20043;-81
2023/08/05 03:22:20;;;;;;;7.57;4.80;;;;;;;;;;5099062;28;20115;-80
2023/08/05 03:24:47;;;;;;;9.38;5.90;;;;;;;;;;5098554;28;20093;-81
2023/08/05 03:27:14;;;;;;;6.28;5.18;;;;;;;;;;5098596;28;20101;-81
2023/08/05 03:29:42;;;;;;;8.43;4.78;;;;;;;;;;5101858;28;20074;-80
2023/08/05 03:32:09;;;;;;;8.43;6.30;;;;;;;;;;5118543;28;20484;-82
2023/08/05 03:34:36;;;;;;;7.13;5.45;;;;;;;;;;5100643;28;20060;-82
2023/08/05 03:37:03;;;;;;;7.15;5.20;;;;;;;;;;5100153;28;20043;-82
2023/08/05 03:39:31;;;;;;;6.97;5.32;;;;;;;;;;5118689;28;20101;-82
2023/08/05 03:41:58;;;;;;;5.60;5.03;;;;;;;;;;5118154;28;20051;-81
2023/08/05 03:44:25;;;;;;;6.45;5.50;;;;;;;;;;5100218;28;20113;-81
2023/08/05 03:46:52;;;;;;;12.18;5.20;;;;;;;;;;5099634;28;20075;-81
2023/08/05 03:49:20;;;;;;;7.22;5.78;;;;;;;;;;5117382;28;20571;-82
2023/08/05 03:51:47;;;;;;;14.60;5.85;;;;;;;;;;5117306;28;20054;-82
2023/08/05 03:54:14;;;;;;;5.13;4.78;;;;;;;;;;5098970;28;20613;-81
2023/08/05 03:56:41;;;;;;;6.15;4.80;;;;;;;;;;5116854;28;20043;-82
2023/08/05 03:59:09;;;;;;;10.93;5.78;;;;;;;;;;5098965;28;20097;-83
2023/08/05 04:01:37;;;;;;;6.88;5.30;;;;;;;;;;5116990;28;20134;-81
2023/08/05 04:04:05;;;;;;;17.00;7.32;;;;;;;;;;5098403;28;20086;-81
2023/08/05 04:06:32;;;;;;;7.75;6.70;;;;;;;;;;5116247;28;20096;-82
2023/08/05 04:09:00;;;;;;;7.20;6.47;;;;;;;;;;5098424;28;20058;-81
2023/08/05 04:11:27;;;;;;;13.30;7.95;;;;;;;;;;5098140;28;20069;-82
2023/08/05 04:13:58;;;;;;;13.23;8.43;;;;;;;;;;5115902;28;20052;-81
2023/08/05 04:16:27;;;;;;;12.68;11.25;;;;;;;;;;5098153;28;20047;-81
2023/08/05 04:18:54;;;;;;;24.77;15.90;;;;;;;;;;5097788;28;20081;-81
2023/08/05 04:21:25;;;;;;;30.70;26.50;;;;;;;;;;5097752;28;20055;-81
2023/08/05 04:23:54;;;;;;;18.73;16.75;;;;;;;;;;5097868;28;20051;-82
2023/08/05 04:26:21;;;;;;;14.98;11.70;;;;;;;;;;5097794;28;20052;-82
2023/08/05 04:28:49;;;;;;;14.40;9.20;;;;;;;;;;5097395;28;20051;-81
2023/08/05 04:31:16;;;;;;;7.93;7.13;;;;;;;;;;5115398;28;20128;-80
2023/08/05 04:33:44;;;;;;;8.75;5.55;;;;;;;;;;5115784;28;20048;-81
2023/08/05 04:36:11;;;;;;;5.30;4.80;;;;;;;;;;5118450;28;20168;-82
2023/08/05 04:38:38;;;;;;;5.45;4.93;;;;;;;;;;5119054;28;20051;-82
2023/08/05 04:41:05;;;;;;;5.10;4.80;;;;;;;;;;5118800;28;20061;-82
2023/08/05 04:43:33;;;;;;;5.10;4.70;;;;;;;;;;5118029;28;20056;-82
2023/08/05 04:46:00;;;;;;;5.10;4.28;;;;;;;;;;5099369;28;20116;-82
2023/08/05 04:48:27;;;;;;;5.78;4.30;;;;;;;;;;5099480;28;20545;-82
2023/08/05 04:50:57;;;;;;;4.60;4.18;;;;;;;;;;5099502;28;20047;-82
2023/08/05 04:53:25;;;;;;;4.85;4.28;;;;;;;;;;5117301;28;20043;-82
2023/08/05 04:55:52;;;;;;;7.07;4.32;;;;;;;;;;5098923;28;20084;-82
2023/08/05 04:58:19;;;;;;;13.30;7.97;;;;;;;;;;5099222;28;20051;-82
2023/08/05 05:00:46;;;;;;;9.35;7.07;;;;;;;;;;5116313;28;20419;-82
2023/08/05 05:03:14;;;;;;;8.75;5.68;;;;;;;;;;5118089;28;20044;-82
2023/08/05 05:05:43;;;;;;;5.78;5.25;;;;;;;;;;5100277;28;20495;-82
2023/08/05 05:08:10;;;;;;;6.38;5.80;;;;;;;;;;5099356;28;20472;-82
2023/08/05 05:10:45;;;;;;;6.00;5.38;;;;;;;;;;5099212;28;20058;-81
2023/08/05 05:13:12;;;;;;;5.47;4.20;;;;;;;;;;5117068;28;20073;-81
2023/08/05 05:15:39;;;;;;;6.97;3.97;;;;;;;;;;5098540;28;20043;-82
2023/08/05 05:18:07;;;;;;;4.75;4.35;;;;;;;;;;5098109;28;20550;-82
2023/08/05 05:20:34;;;;;;;10.10;5.70;;;;;;;;;;5098106;28;20052;-81
2023/08/05 05:23:02;;;;;;;6.03;5.55;;;;;;;;;;5097597;28;20069;-81
2023/08/05 05:25:29;;;;;;;8.48;6.05;;;;;;;;;;5115622;28;20048;-82
2023/08/05 05:27:56;;;;;;;5.78;4.45;;;;;;;;;;5097977;28;20091;-83
2023/08/05 05:30:23;;;;;;;4.90;3.80;;;;;;;;;;5097462;28;20521;-82
2023/08/05 05:32:51;;;;;;;5.25;4.63;;;;;;;;;;5114694;28;20048;-83
2023/08/05 05:35:18;;;;;;;5.47;4.50;;;;;;;;;;5115797;28;20496;-82
2023/08/05 05:37:45;;;;;;;4.00;3.65;;;;;;;;;;5115288;28;20077;-82
2023/08/05 05:40:12;;;;;;;3.40;2.80;;;;;;;;;;5097171;28;20047;-82
2023/08/05 05:42:42;;;;;;;4.28;2.60;;;;;;;;;;5097834;28;20079;-82
2023/08/05 05:45:09;;;;;;;4.22;2.78;;;;;;;;;;5115025;28;20104;-82
2023/08/05 05:47:36;;;;;;;5.85;2.58;;;;;;;;;;5115249;28;20552;-82
2023/08/05 05:50:04;;;;;;;6.07;2.63;;;;;;;;;;5115084;28;20059;-82
2023/08/05 05:52:31;;;;;;;3.17;2.38;;;;;;;;;;5096397;28;20048;-82
2023/08/05 05:54:58;;;;;;;2.55;2.45;;;;;;;;;;5096608;28;20207;-82
2023/08/05 05:57:25;;;;;;;4.28;2.38;;;;;;;;;;5096655;28;20423;-82
2023/08/05 05:59:53;;;;;;;2.17;1.98;;;;;;;;;;5096409;28;20048;-82
2023/08/05 06:02:20;;;;;;;3.70;2.08;;;;;;;;;;5096744;28;20054;-81
2023/08/05 06:04:47;;;;;;;3.60;2.00;;;;;;;;;;5096092;28;20587;-82
2023/08/05 06:07:15;;;;;;;4.03;2.08;;;;;;;;;;5096079;28;20075;-81
2023/08/05 06:09:42;;;;;;;4.45;1.88;;;;;;;;;;5095953;28;20097;-82
2023/08/05 06:12:10;;;;;;;2.47;2.05;;;;;;;;;;5095951;28;20043;-82
2023/08/05 06:14:38;;;;;;;3.25;1.83;;;;;;;;;;5114795;28;20048;-81
2023/08/05 06:17:05;;;;;;;2.13;1.90;;;;;;;;;;5096648;28;20051;-81
2023/08/05 06:19:33;;;;;;;1.60;1.50;;;;;;;;;;5096314;28;20066;-83
2023/08/05 06:22:00;;;;;;;5.05;2.38;;;;;;;;;;5096145;28;20108;-81
2023/08/05 06:24:27;;;;;;;3.72;1.90;;;;;;;;;;5096138;28;20089;-82
2023/08/05 06:26:54;;;;;;;1.90;1.80;;;;;;;;;;5113207;28;20108;-82
2023/08/05 06:29:22;;;;;;;1.63;1.52;;;;;;;;;;5095682;28;20503;-82
2023/08/05 06:31:49;;;;;;;3.47;2.15;;;;;;;;;;5113500;28;20047;-81
2023/08/05 06:34:17;;;;;;;1.77;1.42;;;;;;;;;;5095507;28;20128;-81
2023/08/05 06:36:44;;;;;;;2.70;1.70;;;;;;;;;;5095365;28;20047;-81
2023/08/05 06:39:12;;;;;;;1.73;1.30;;;;;;;;;;5098226;28;20107;-83
2023/08/05 06:41:39;;;;;;;2.25;1.73;;;;;;;;;;5098285;28;20469;-83
2023/08/05 06:44:06;;;;;;;2.20;1.92;;;;;;;;;;5096049;28;20503;-83
2023/08/05 06:46:34;;;;;;;4.15;1.52;;;;;;;;;;5096400;28;20067;-82
2023/08/05 06:49:01;;;;;;;2.28;1.38;;;;;;;;;;5096436;28;20138;-82
2023/08/05 06:51:31;;;;;;;5.28;2.20;;;;;;;;;;5096335;28;20415;-81
2023/08/05 06:53:59;;;;;;;3.60;1.83;;;;;;;;;;5114994;28;20054;-82
2023/08/05 06:56:26;;;;;;;2.00;1.60;;;;;;;;;;5114783;28;20048;-82
2023/08/05 06:58:54;;;;;;;4.88;1.80;;;;;;;;;;5095980;28;20491;-82
2023/08/05 07:01:21;;;;;;;2.20;1.98;;;;;;;;;;5096044;28;20105;-82
2023/08/05 07:03:49;;;;;;;2.10;2.00;;;;;;;;;;5095514;28;20043;-82
2023/08/05 07:06:17;;;;;;;2.38;1.90;;;;;;;;;;5113712;28;20047;-83
2023/08/05 07:08:44;;;;;;;3.53;1.98;;;;;;;;;;5095959;28;20064;-82
2023/08/05 07:11:11;;;;;;;5.85;2.22;;;;;;;;;;5095910;28;20051;-80
2023/08/05 07:13:38;;;;;;;3.05;1.98;;;;;;;;;;5113113;28;20488;-82
2023/08/05 07:16:07;;;;;;;5.00;2.00;;;;;;;;;;5113381;28;20054;-82
2023/08/05 07:18:35;;;;;;;2.63;2.40;;;;;;;;;;5095258;28;20044;-82
2023/08/05 07:21:02;;;;;;;2.40;2.13;;;;;;;;;;5094942;28;20044;-81
2023/08/05 07:23:29;;;;;;;2.80;2.20;;;;;;;;;;5113395;28;20052;-80
2023/08/05 07:25:59;;;;;;;5.68;2.60;;;;;;;;;;5102424;28;20074;-82
2023/08/05 07:28:27;;;;;;;4.05;2.10;;;;;;;;;;5111503;28;20052;-82
2023/08/05 07:31:12;;;;;;;3.67;2.33;;;;;;;;;;5111659;28;20047;-81
2023/08/05 07:33:41;;;;;;;3.53;2.50;;;;;;;;;;5112985;28;20526;-82
2023/08/05 07:36:10;;;;;;;3.67;2.20;;;;;;;;;;5112912;28;20101;-81
2023/08/05 07:38:42;;;;;;;2.60;2.40;;;;;;;;;;5111084;28;20052;-82
2023/08/05 07:41:11;;;;;;;;;;;;;;;;;;5111881;28;20054;-82
2023/08/05 07:43:39;;;;;;;3.15;2.95;;;;;;;;;;5111105;28;19923;-80
2023/08/05 07:46:06;;;;;;;5.28;3.15;;;;;;;;;;5112320;28;20055;-81
2023/08/05 07:48:39;;;;;;;3.17;2.97;;;;;;;;;;5111226;28;20055;-80
2023/08/05 07:51:07;;;;;;;6.55;2.38;;;;;;;;;;5111589;28;20047;-80
2023/08/05 07:53:37;;;;;;;4.68;2.80;;;;;;;;;;5112151;28;20044;-81
2023/08/05 07:56:08;;;;;;;3.95;2.47;;;;;;;;;;5116239;28;20096;-82
2023/08/05 07:58:39;;;;;;;2.40;2.20;;;;;;;;;;5115136;28;20093;-82
2023/08/05 08:01:07;;;;;;;6.97;3.05;;;;;;;;;;5116824;28;20125;-81
2023/08/05 08:03:34;;;;;;;4.35;2.50;;;;;;;;;;5114593;28;20586;-80
2023/08/05 08:06:02;;;;;;;4.75;2.47;;;;;;;;;;5114863;28;20052;-80
2023/08/05 08:08:29;;;;;;;3.08;2.30;;;;;;;;;;5114814;28;20129;-80
2023/08/05 08:10:56;;;;;;;2.50;2.30;;;;;;;;;;5114777;28;20470;-81
2023/08/05 08:13:24;;;;;;;2.97;2.58;;;;;;;;;;5117076;28;20047;-83
2023/08/05 08:15:51;;;;;;;3.83;2.90;;;;;;;;;;5117676;28;20061;-82
2023/08/05 08:18:18;;;;;;;4.65;3.17;;;;;;;;;;5116067;28;20183;-82
2023/08/05 08:20:52;;;;;;;2.97;2.45;;;;;;;;;;5115752;28;20089;-82
2023/08/05 08:23:19;;;;;;;;;;;;;;;;;;5116887;28;20053;-82
2023/08/05 08:25:46;;;;;;;4.70;3.10;;;;;;;;;;5116659;28;19973;-82
2023/08/05 08:28:13;;;;;;;2.75;2.55;;;;;;;;;;5115703;28;20396;-82
2023/08/05 08:30:51;;;;;;;4.05;3.08;;;;;;;;;;5116330;28;20048;-80
2023/08/05 08:33:18;;;;;;;3.50;2.50;;;;;;;;;;5115133;28;20051;-82
2023/08/05 08:35:45;;;;;;;6.45;2.88;;;;;;;;;;5116459;28;20044;-81
2023/08/05 08:38:12;;;;;;;4.32;3.30;;;;;;;;;;5115117;28;20051;-82
2023/08/05 08:40:46;;;;;;;3.47;2.80;;;;;;;;;;5115050;28;20082;-81
2023/08/05 08:43:14;;;;;;;4.93;2.92;;;;;;;;;;5114535;28;20108;-82
2023/08/05 08:45:42;;;;;;;3.65;3.25;;;;;;;;;;5114541;28;20100;-82
2023/08/05 08:48:09;;;;;;;7.53;3.55;;;;;;;;;;5114637;28;20071;-83
2023/08/05 08:50:40;;;;;;;6.43;3.67;;;;;;;;;;5115007;28;20096;-82
2023/08/05 08:53:10;;;;;;;3.00;2.60;;;;;;;;;;5114435;28;20044;-82
2023/08/05 08:55:38;;;;;;;3.17;2.88;;;;;;;;;;5114142;28;20044;-83
2023/08/05 08:58:05;;;;;;;3.10;2.75;;;;;;;;;;5115386;28;20048;-83
2023/08/05 09:00:33;;;;;;;4.28;2.72;;;;;;;;;;5114281;28;20204;-83
2023/08/05 09:03:03;;;;;;;2.92;2.45;;;;;;;;;;5115717;28;20051;-81
2023/08/05 09:05:51;;;;;;;2.40;2.20;;;;;;;;;;5115209;28;20422;-83
2023/08/05 09:08:19;;;;;;;6.78;3.30;;;;;;;;;;5099594;28;20576;-81
2023/08/05 09:10:46;;;;;;;2.85;2.65;;;;;;;;;;5114857;28;20055;-82
2023/08/05 09:13:17;;;;;;;4.10;2.58;;;;;;;;;;5113744;28;20086;-80
2023/08/05 09:15:44;;;;;;;4.60;2.72;;;;;;;;;;5113748;28;20097;-80
2023/08/05 09:18:11;;;;;;;3.72;2.60;;;;;;;;;;5113655;28;20044;-81
2023/08/05 09:20:39;;;;;;;2.70;2.50;;;;;;;;;;5114317;28;20499;-80
2023/08/05 09:23:07;;;;;;;3.45;3.00;;;;;;;;;;5113435;28;20051;-81
2023/08/05 09:25:39;;;;;;;5.47;3.13;;;;;;;;;;5113097;28;20052;-80
2023/08/05 09:28:06;;;;;;;2.92;2.72;;;;;;;;;;5114539;28;20419;-81
2023/08/05 09:30:34;;;;;;;3.25;2.67;;;;;;;;;;5113401;28;20051;-80
2023/08/05 09:33:02;;;;;;;2.78;2.40;;;;;;;;;;5113364;28;20047;-82
2023/08/05 09:35:29;;;;;;;3.33;2.50;;;;;;;;;;5112995;28;20039;-80
2023/08/05 09:37:57;;;;;;;2.90;2.70;;;;;;;;;;5113853;28;20051;-81
2023/08/05 09:40:36;;;;;;;2.95;2.65;;;;;;;;;;5114725;28;20054;-82
2023/08/05 09:43:04;;;;;;;4.45;2.70;;;;;;;;;;5113194;28;20054;-81
2023/08/05 09:45:32;;;;;;;3.90;2.60;;;;;;;;;;5113389;28;20100;-81
2023/08/05 09:48:07;;;;;;;3.83;2.42;;;;;;;;;;5115417;28;20052;-81
2023/08/05 09:50:37;;;;;;;2.53;2.30;;;;;;;;;;5116586;28;20077;-83
2023/08/05 09:53:06;;;;;;;2.10;2.00;;;;;;;;;;5115619;28;20056;-81
2023/08/05 09:55:34;;;;;;;3.22;2.03;;;;;;;;;;5115525;28;20054;-83
2023/08/05 09:58:01;;;;;;;2.45;2.25;;;;;;;;;;5114132;28;20054;-83
2023/08/05 10:00:32;;;;;;;3.05;1.80;;;;;;;;;;5114456;28;20039;-83
2023/08/05 10:03:00;;;;;;;2.17;2.08;;;;;;;;;;5115516;28;20043;-83
2023/08/05 10:05:27;;;;;;;2.55;2.30;;;;;;;;;;5115539;28;20051;-83
2023/08/05 10:07:54;;;;;;;2.60;2.05;;;;;;;;;;5114326;28;20114;-83
2023/08/05 10:10:22;;;;;;;4.38;2.58;;;;;;;;;;5121963;28;20043;-82
2023/08/05 10:12:58;;;;;;;3.40;1.95;;;;;;;;;;5123894;28;20077;-80
2023/08/05 10:15:29;;;;;;;5.82;2.05;;;;;;;;;;5118882;28;20050;-83
2023/08/05 10:17:57;;;;;;;2.50;2.30;;;;;;;;;;5114848;28;20040;-83
2023/08/05 10:20:24;;;;;;;2.50;2.25;;;;;;;;;;5116785;28;20131;-80
2023/08/05 10:23:04;;;;;;;2.20;2.08;;;;;;;;;;5116006;28;20130;-83
2023/08/05 10:25:39;;;;;;;2.58;2.30;;;;;;;;;;5116172;28;20576;-83
2023/08/05 10:28:07;;;;;;;2.38;2.17;;;;;;;;;;5115675;28;20457;-82
2023/08/05 10:30:42;;;;;;;2.53;2.28;;;;;;;;;;5114826;28;20051;-82
2023/08/05 10:33:09;;;;;;;2.72;2.55;;;;;;;;;;5114513;28;20086;-81
2023/08/05 10:35:41;;;;;;;2.65;2.03;;;;;;;;;;5113565;28;20503;-83
2023/08/05 10:38:11;;;;;;;3.45;2.60;;;;;;;;;;5115334;28;20043;-82
2023/08/05 10:40:42;;;;;;;3.28;2.38;;;;;;;;;;5114529;28;20052;-82
2023/08/05 10:43:10;;;;;;;4.70;2.45;;;;;;;;;;5113769;28;20055;-82
2023/08/05 10:45:42;;;;;;;4.35;2.25;;;;;;;;;;5115094;28;20051;-81
2023/08/05 10:48:10;;;;;;;4.50;2.30;;;;;;;;;;5113369;28;20112;-81
2023/08/05 10:50:39;;;;;;;2.10;1.90;;;;;;;;;;5114802;28;20068;-79
2023/08/05 10:53:13;;;;;;;2.63;2.35;;;;;;;;;;5114759;28;20047;-81
2023/08/05 10:55:47;;;;;;;2.00;1.90;;;;;;;;;;5114301;28;20093;-82
2023/08/05 10:58:15;;;;;;;5.05;2.20;;;;;;;;;;5113089;28;20488;-82
2023/08/05 11:00:44;;;;;;;3.63;2.15;;;;;;;;;;5113160;28;20044;-81
2023/08/05 11:03:30;;;;;;;4.93;2.10;;;;;;;;;;5113447;28;20055;-82
2023/08/05 11:06:01;;;;;;;4.03;1.90;;;;;;;;;;5114082;28;20057;-82
2023/08/05 11:08:28;;;;;;;2.80;1.90;;;;;;;;;;5112664;28;20078;-82
2023/08/05 11:10:57;;;;;;;2.70;1.77;;;;;;;;;;5112615;28;20098;-80
2023/08/05 11:13:25;;;;;;;2.47;1.88;;;;;;;;;;5113868;28;20298;-82
2023/08/05 11:16:05;;;;;;;2.72;1.50;;;;;;;;;;5113220;28;20047;-82
2023/08/05 11:18:33;;;;;;;3.42;1.67;;;;;;;;;;5114032;28;20047;-80
2023/08/05 11:21:02;;;;;;;4.30;2.28;;;;;;;;;;5113111;28;20638;-82
2023/08/05 11:23:30;;;;;;;9.90;2.10;;;;;;;;;;5114727;28;20054;-79
2023/08/05 11:26:01;;;;;;;2.50;2.00;;;;;;;;;;5115100;28;20051;-81
2023/08/05 11:28:29;;;;;;;2.05;1.83;;;;;;;;;;5116673;28;20105;-80
2023/08/05 11:31:00;;;;;;;2.05;1.63;;;;;;;;;;5117454;28;20126;-81
2023/08/05 11:33:28;;;;;;;1.40;1.30;;;;;;;;;;5126581;27;20432;-80
2023/08/05 11:35:55;;;;;;;3.30;1.92;;;;;;;;;;5128468;27;20047;-79
2023/08/05 11:38:23;;;;;;;1.73;1.63;;;;;;;;;;5138905;27;20096;-80
2023/08/05 11:40:57;;;;;;;3.67;1.90;;;;;;;;;;5139136;27;20085;-79
2023/08/05 11:43:24;;;;;;;1.90;1.60;;;;;;;;;;5138742;27;20100;-80
2023/08/05 11:45:54;;;;;;;2.53;1.98;;;;;;;;;;5138355;27;20418;-81
2023/08/05 11:48:25;;;;;;;2.63;1.77;;;;;;;;;;5137482;27;20569;-79
2023/08/05 11:51:01;;;;;;;2.80;2.15;;;;;;;;;;5137285;27;20047;-81
2023/08/05 11:53:28;;;;;;;1.77;1.67;;;;;;;;;;5137363;27;20047;-80
2023/08/05 11:55:56;;;;;;;2.55;1.98;;;;;;;;;;5137185;27;20043;-79
2023/08/05 11:58:23;;;;;;;3.25;2.70;;;;;;;;;;5137196;27;20046;-80
2023/08/05 12:00:52;;;;;;;3.08;2.15;;;;;;;;;;5138581;27;20100;-79
2023/08/05 12:03:20;;;;;;;2.40;2.00;;;;;;;;;;5136928;27;20139;-79
2023/08/05 12:05:47;;;;;;;2.65;1.80;;;;;;;;;;5136483;27;20051;-79
2023/08/05 12:08:34;;;;;;;2.85;2.10;;;;;;;;;;5136791;27;20047;-79
2023/08/05 12:11:02;;;;;;;2.80;2.00;;;;;;;;;;5136533;27;20100;-80
2023/08/05 12:13:32;;;;;;;4.70;2.20;;;;;;;;;;5136046;27;20061;-79
2023/08/05 12:15:59;;;;;;;2.90;1.98;;;;;;;;;;5136246;27;20068;-80
2023/08/05 12:18:27;;;;;;;2.42;1.88;;;;;;;;;;5136060;27;20108;-80
2023/08/05 12:20:54;;;;;;;3.10;2.13;;;;;;;;;;5136192;27;20096;-80
2023/08/05 12:23:21;;;;;;;2.67;2.40;;;;;;;;;;5136417;27;20043;-80
2023/08/05 12:25:49;;;;;;;3.78;2.50;;;;;;;;;;5136035;27;20506;-80
2023/08/05 12:28:18;;;;;;;2.28;2.05;;;;;;;;;;5136146;27;20534;-77
2023/08/05 12:30:45;;;;;;;3.05;2.38;;;;;;;;;;5136067;27;20062;-80
2023/08/05 12:33:12;;;;;;;2.50;2.28;;;;;;;;;;5137361;27;20054;-79
2023/08/05 12:35:42;;;;;;;3.60;2.33;;;;;;;;;;5136280;27;20516;-80
2023/08/05 12:38:09;;;;;;;2.90;2.03;;;;;;;;;;5137738;27;20043;-80
2023/08/05 12:40:37;;;;;;;2.08;1.85;;;;;;;;;;5139817;27;20068;-76
2023/08/05 12:43:04;;;;;;;3.10;2.15;;;;;;;;;;5140051;27;20047;-80
2023/08/05 12:45:31;;;;;;;2.70;2.50;;;;;;;;;;5139346;27;20051;-79
2023/08/05 12:47:58;;;;;;;2.97;2.10;;;;;;;;;;5124742;27;20055;-80
2023/08/05 12:50:26;;;;;;;2.50;1.98;;;;;;;;;;5122244;28;20057;-79
2023/08/05 12:52:53;;;;;;;3.35;2.35;;;;;;;;;;5123433;28;20073;-79
2023/08/05 12:55:20;;;;;;;2.65;2.45;;;;;;;;;;5120062;28;20048;-80
2023/08/05 12:57:49;;;;;;;3.80;2.30;;;;;;;;;;5118261;28;20052;-80
2023/08/05 13:00:16;;;;;;;2.78;2.58;;;;;;;;;;5119322;28;20087;-80
2023/08/05 13:02:46;;;;;;;3.75;2.55;;;;;;;;;;5118690;28;20055;-81
2023/08/05 13:05:13;;;;;;;5.70;2.45;;;;;;;;;;5117800;28;20130;-80
2023/08/05 13:07:40;;;;;;;2.70;2.42;;;;;;;;;;5117922;28;20040;-80
2023/08/05 13:10:08;;;;;;;2.47;2.28;;;;;;;;;;5119550;28;20043;-80
2023/08/05 13:12:37;;;;;;;2.60;2.30;;;;;;;;;;5119056;28;20055;-79
2023/08/05 13:15:04;;;;;;;2.50;2.33;;;;;;;;;;5116191;28;20044;-80
2023/08/05 13:17:32;;;;;;;3.80;2.20;;;;;;;;;;5116752;28;20075;-78
2023/08/05 13:19:59;;;;;;;4.20;2.65;;;;;;;;;;5118332;28;20499;-79
2023/08/05 13:22:27;;;;;;;2.92;2.38;;;;;;;;;;5116740;28;20469;-77
2023/08/05 13:24:56;;;;;;;3.53;2.38;;;;;;;;;;5117531;28;20059;-80
2023/08/05 13:27:23;;;;;;;4.22;2.13;;;;;;;;;;5116749;28;20052;-78
2023/08/05 13:29:50;;;;;;;3.65;2.03;;;;;;;;;;5117358;28;20051;-79
2023/08/05 13:32:18;;;;;;;5.00;2.35;;;;;;;;;;5117734;28;20469;-80
2023/08/05 13:34:45;;;;;;;4.10;2.28;;;;;;;;;;5115433;28;20051;-80
2023/08/05 13:37:12;;;;;;;2.33;2.03;;;;;;;;;;5116144;28;20108;-80
2023/08/05 13:39:40;;;;;;;2.25;2.08;;;;;;;;;;5116439;28;20039;-80
2023/08/05 13:42:07;;;;;;;2.05;1.95;;;;;;;;;;5116222;28;20048;-79
2023/08/05 13:44:34;;;;;;;2.35;1.88;;;;;;;;;;5117075;28;20054;-79
2023/08/05 13:47:02;;;;;;;2.08;1.88;;;;;;;;;;5115437;28;20058;-79
2023/08/05 13:49:29;;;;;;;3.35;1.95;;;;;;;;;;5115281;28;20051;-79
2023/08/05 13:51:56;;;;;;;2.15;1.95;;;;;;;;;;5114927;28;20065;-80
2023/08/05 13:54:23;;;;;;;2.55;2.22;;;;;;;;;;5114541;28;20496;-79
2023/08/05 13:56:51;;;;;;;2.60;2.50;;;;;;;;;;5114528;28;20073;-78
2023/08/05 13:59:18;;;;;;;2.45;2.20;;;;;;;;;;5116011;28;20093;-80
2023/08/05 14:01:46;;;;;;;2.85;2.20;;;;;;;;;;5114500;28;20043;-77
2023/08/05 14:04:13;;;;;;;3.20;1.90;;;;;;;;;;5115894;28;20131;-80
2023/08/05 14:06:41;;;;;;;2.38;2.05;;;;;;;;;;5115772;28;20400;-80
2023/08/05 14:09:08;;;;;;;3.80;2.00;;;;;;;;;;5116056;28;20121;-79
2023/08/05 14:11:36;;;;;;;2.08;1.90;;;;;;;;;;5114550;28;20047;-80
2023/08/05 14:14:03;;;;;;;3.25;2.00;;;;;;;;;;5114528;28;20054;-79
2023/08/05 14:16:30;;;;;;;4.68;2.33;;;;;;;;;;5113859;28;20047;-80
2023/08/05 14:18:59;;;;;;;2.45;1.92;;;;;;;;;;5116805;28;20103;-78
2023/08/05 14:21:27;;;;;;;3.88;2.33;;;;;;;;;;5116347;28;20164;-79
2023/08/05 14:23:54;;;;;;;4.53;2.42;;;;;;;;;;5115061;28;20111;-78
2023/08/05 14:26:22;;;;;;;1.90;1.80;;;;;;;;;;5113549;28;20112;-79
2023/08/05 14:28:49;;;;;;;2.83;2.10;;;;;;;;;;5113493;28;20055;-78
2023/08/05 14:31:17;;;;;;;4.85;1.70;;;;;;;;;;5114980;28;20051;-78
2023/08/05 14:33:44;;;;;;;1.70;1.60;;;;;;;;;;5113877;28;20134;-79
2023/08/05 14:36:12;;;;;;;3.50;1.60;;;;;;;;;;5116931;28;20043;-80
2023/08/05 14:38:39;;;;;;;2.75;1.75;;;;;;;;;;5115285;28;20047;-80
2023/08/05 14:41:13;;;;;;;3.10;1.80;;;;;;;;;;5115897;28;20055;-80
2023/08/05 14:43:41;;;;;;;2.00;1.85;;;;;;;;;;5114379;28;20453;-79
2023/08/05 14:46:08;;;;;;;2.92;1.73;;;;;;;;;;5115489;28;20149;-80
2023/08/05 14:48:35;;;;;;;2.03;1.85;;;;;;;;;;5116437;28;20051;-81